Time;durP1;ratioP1;P1;durP2;ratioP2;P2;SDS_P1;SDS_P2;PMS_P1;PMS_P2;Temp;Humidity;BMP_temperature;BMP_pressure;BME280_temperature;BME280_humidity;BME280_pressure;Samples;Min_cycle;Max_cycle;Signal;HPM_P1;HPM_P2
2022/07/04 00:02:07;;;;;;;12.20;11.60;;;23.70;24.20;;;;;;5072888;28;20179;-64
2022/07/04 00:04:33;;;;;;;12.43;11.73;;;23.60;24.40;;;;;;5073440;28;20203;-65
2022/07/04 00:06:58;;;;;;;12.07;11.67;;;23.60;24.70;;;;;;5073444;28;20175;-63
2022/07/04 00:09:24;;;;;;;13.13;12.63;;;23.60;24.50;;;;;;5073296;28;20182;-64
2022/07/04 00:11:49;;;;;;;13.33;12.30;;;23.60;24.10;;;;;;5073112;28;20250;-63
2022/07/04 00:14:15;;;;;;;11.90;11.50;;;23.40;24.70;;;;;;5073383;28;20198;-66
2022/07/04 00:16:40;;;;;;;11.90;11.40;;;23.40;25.20;;;;;;5073031;28;20179;-63
2022/07/04 00:19:06;;;;;;;12.37;11.80;;;23.50;24.70;;;;;;5073027;28;20548;-65
2022/07/04 00:21:31;;;;;;;12.03;11.53;;;23.50;25.00;;;;;;5072756;28;20175;-65
2022/07/04 00:23:57;;;;;;;12.20;11.70;;;23.30;25.30;;;;;;5072839;28;20195;-64
2022/07/04 00:26:22;;;;;;;12.43;11.93;;;23.40;25.20;;;;;;5072156;28;20289;-64
2022/07/04 00:28:48;;;;;;;12.70;11.80;;;23.30;24.80;;;;;;5072440;28;20178;-64
2022/07/04 00:31:14;;;;;;;11.90;11.40;;;23.40;24.70;;;;;;5071918;28;20216;-61
2022/07/04 00:33:39;;;;;;;12.10;11.67;;;23.40;24.80;;;;;;5072110;28;20598;-65
2022/07/04 00:36:05;;;;;;;12.47;11.97;;;23.20;25.20;;;;;;5072147;28;20195;-65
2022/07/04 00:38:31;;;;;;;13.10;12.50;;;23.20;25.60;;;;;;5072154;28;20175;-60
2022/07/04 00:40:56;;;;;;;12.70;12.20;;;23.20;25.10;;;;;;5071946;28;20497;-64
2022/07/04 00:43:24;;;;;;;13.30;12.63;;;23.20;25.10;;;;;;5071926;28;20237;-65
2022/07/04 00:45:50;;;;;;;12.47;12.07;;;23.20;25.20;;;;;;5071608;28;20205;-63
2022/07/04 00:48:16;;;;;;;12.23;11.63;;;23.10;25.10;;;;;;5072197;28;20401;-64
2022/07/04 00:50:44;;;;;;;14.23;13.43;;;23.10;25.30;;;;;;5072474;28;20544;-64
2022/07/04 00:53:10;;;;;;;12.57;12.17;;;23.10;25.50;;;;;;5071979;28;20435;-64
2022/07/04 00:55:37;;;;;;;13.07;12.37;;;23.00;25.30;;;;;;5072604;28;20440;-65
2022/07/04 00:58:02;;;;;;;12.90;12.10;;;23.10;25.30;;;;;;5072599;28;20414;-65
2022/07/04 01:00:28;;;;;;;12.53;12.10;;;23.00;25.50;;;;;;5071929;28;20513;-65
2022/07/04 01:02:53;;;;;;;12.90;12.10;;;22.90;25.60;;;;;;5072047;28;20186;-64
2022/07/04 01:05:19;;;;;;;12.40;11.73;;;22.90;25.70;;;;;;5072220;28;20211;-65
2022/07/04 01:07:45;;;;;;;11.77;11.27;;;22.80;26.10;;;;;;5072145;28;20168;-65
2022/07/04 01:10:10;;;;;;;11.73;11.33;;;22.80;25.90;;;;;;5072563;28;20178;-63
2022/07/04 01:12:36;;;;;;;13.20;12.00;;;22.90;25.80;;;;;;5071764;28;20237;-62
2022/07/04 01:15:02;;;;;;;12.33;11.70;;;22.80;25.90;;;;;;5072231;28;20191;-61
2022/07/04 01:17:28;;;;;;;12.27;11.67;;;22.70;26.00;;;;;;5072242;28;20428;-61
2022/07/04 01:19:53;;;;;;;12.47;11.97;;;22.70;26.90;;;;;;5071804;28;20413;-62
2022/07/04 01:22:21;;;;;;;12.63;12.03;;;22.70;26.80;;;;;;5073952;28;20190;-62
2022/07/04 01:24:53;;;;;;;12.97;12.27;;;22.70;26.20;;;;;;5075429;28;20229;-62
2022/07/04 01:27:18;;;;;;;12.30;11.70;;;22.70;26.30;;;;;;5076059;28;20402;-61
2022/07/04 01:33:05;;;;;;;14.23;12.83;;;22.60;26.50;;;;;;5076521;28;20648;-62
2022/07/04 01:35:31;;;;;;;13.27;12.77;;;22.60;26.60;;;;;;5076059;28;20441;-66
2022/07/04 01:37:57;;;;;;;12.60;12.20;;;22.60;26.50;;;;;;5075761;28;20712;-62
2022/07/04 01:40:23;;;;;;;13.70;12.90;;;22.50;26.40;;;;;;5076433;28;20179;-60
2022/07/04 01:42:49;;;;;;;13.40;12.90;;;22.50;27.20;;;;;;5075901;28;20417;-64
2022/07/04 01:45:15;;;;;;;13.27;12.57;;;22.40;26.70;;;;;;5076022;28;20249;-61
2022/07/04 01:47:41;;;;;;;12.80;12.30;;;22.50;26.60;;;;;;5075713;28;20410;-64
2022/07/04 01:50:08;;;;;;;12.97;12.37;;;22.50;26.70;;;;;;5075697;28;20471;-63
2022/07/04 01:52:34;;;;;;;12.60;12.20;;;22.50;26.60;;;;;;5075515;28;20406;-62
2022/07/04 01:55:00;;;;;;;12.67;12.17;;;22.30;26.90;;;;;;5075121;28;20800;-64
2022/07/04 01:57:26;;;;;;;13.20;12.40;;;22.30;26.90;;;;;;5075253;28;20195;-62
2022/07/04 02:02:36;;;;;;;12.70;12.20;;;22.40;27.10;;;;;;5075336;28;20276;-63
2022/07/04 02:05:03;;;;;;;12.93;12.43;;;22.30;27.70;;;;;;5074831;28;20453;-65
2022/07/04 02:07:28;;;;;;;13.47;12.77;;;22.20;27.30;;;;;;5074862;28;20410;-64
2022/07/04 02:09:54;;;;;;;13.00;12.40;;;22.20;27.80;;;;;;5074164;28;20908;-63
2022/07/04 02:15:05;;;;;;;13.93;13.33;;;22.20;27.30;;;;;;5074979;28;20305;-65
2022/07/04 02:17:30;;;;;;;13.77;12.90;;;22.10;27.40;;;;;;5074360;28;20410;-63
2022/07/04 02:19:56;;;;;;;13.40;12.90;;;22.10;27.30;;;;;;5074780;28;20448;-63
2022/07/04 02:22:21;;;;;;;13.80;12.93;;;22.00;27.60;;;;;;5075277;28;20206;-61
2022/07/04 02:24:47;;;;;;;13.10;12.60;;;22.00;27.80;;;;;;5074562;28;20565;-65
2022/07/04 02:27:12;;;;;;;13.13;12.53;;;22.00;27.80;;;;;;5075193;28;20247;-64
2022/07/04 02:29:38;;;;;;;13.43;12.93;;;21.90;27.80;;;;;;5074908;28;20651;-62
2022/07/04 02:32:04;;;;;;;13.57;12.50;;;21.90;28.20;;;;;;5074435;28;20301;-62
2022/07/04 02:34:30;;;;;;;13.10;12.40;;;22.00;27.60;;;;;;5074556;28;20483;-63
2022/07/04 02:36:56;;;;;;;13.90;13.33;;;21.90;27.90;;;;;;5075789;28;20492;-64
2022/07/04 02:39:21;;;;;;;13.60;13.10;;;21.70;28.20;;;;;;5076197;28;20815;-65
2022/07/04 02:41:47;;;;;;;14.30;13.70;;;21.70;28.30;;;;;;5074071;28;20199;-67
2022/07/04 02:44:13;;;;;;;13.87;13.10;;;21.60;28.40;;;;;;5074159;28;20634;-62
2022/07/04 02:46:38;;;;;;;13.53;13.00;;;21.70;28.80;;;;;;5074545;28;20270;-65
2022/07/04 02:49:04;;;;;;;13.60;13.10;;;21.80;28.10;;;;;;5073941;28;20178;-65
2022/07/04 02:51:30;;;;;;;13.73;12.93;;;21.80;28.60;;;;;;5073711;28;20175;-63
2022/07/04 02:53:56;;;;;;;13.43;12.83;;;21.70;28.10;;;;;;5073610;28;20187;-63
2022/07/04 02:56:22;;;;;;;13.63;12.77;;;21.60;28.50;;;;;;5074341;28;20186;-64
2022/07/04 02:58:47;;;;;;;13.70;13.20;;;21.70;28.30;;;;;;5073938;28;20891;-63
2022/07/04 03:01:13;;;;;;;14.10;13.33;;;21.70;28.60;;;;;;5073388;28;20409;-62
2022/07/04 03:03:39;;;;;;;14.07;13.40;;;21.60;28.60;;;;;;5073873;28;20191;-61
2022/07/04 03:06:07;;;;;;;15.07;14.33;;;21.50;29.00;;;;;;5073827;28;20203;-60
2022/07/04 03:08:33;;;;;;;13.70;13.30;;;21.40;29.00;;;;;;5073792;28;20410;-62
2022/07/04 03:10:58;;;;;;;15.10;14.50;;;21.50;28.90;;;;;;5073101;28;20483;-63
2022/07/04 03:13:24;;;;;;;15.30;14.70;;;21.40;29.10;;;;;;5074018;28;20448;-61
2022/07/04 03:15:51;;;;;;;14.50;14.00;;;21.40;30.00;;;;;;5073554;28;20349;-63
2022/07/04 03:18:16;;;;;;;14.27;13.77;;;21.30;29.70;;;;;;5073742;28;20190;-64
2022/07/04 03:20:42;;;;;;;14.60;14.00;;;21.40;29.00;;;;;;5073837;28;20418;-60
2022/07/04 03:23:07;;;;;;;14.83;14.20;;;21.30;29.60;;;;;;5073885;28;20228;-59
2022/07/04 03:25:33;;;;;;;15.10;14.60;;;21.20;29.50;;;;;;5082490;28;20218;-64
2022/07/04 03:27:59;;;;;;;14.17;13.67;;;21.30;29.60;;;;;;5083108;28;20656;-63
2022/07/04 03:30:24;;;;;;;15.27;14.70;;;21.30;29.60;;;;;;5080436;28;20270;-65
2022/07/04 03:32:50;;;;;;;15.50;14.83;;;21.20;29.60;;;;;;5080904;28;20607;-64
2022/07/04 03:35:15;;;;;;;15.73;15.13;;;21.10;30.00;;;;;;5076306;28;20260;-60
2022/07/04 03:37:41;;;;;;;15.20;14.60;;;21.20;29.70;;;;;;5082274;28;20183;-62
2022/07/04 03:40:07;;;;;;;15.60;14.60;;;21.20;29.90;;;;;;5082520;28;20186;-66
2022/07/04 03:42:33;;;;;;;15.53;14.73;;;21.20;29.70;;;;;;5080931;28;20179;-65
2022/07/04 03:44:58;;;;;;;15.33;14.73;;;21.00;30.20;;;;;;5077449;28;20495;-66
2022/07/04 03:47:24;;;;;;;16.73;15.73;;;21.10;30.20;;;;;;5073087;28;20183;-62
2022/07/04 03:49:49;;;;;;;14.87;14.23;;;21.00;30.70;;;;;;5072940;28;20187;-62
2022/07/04 03:52:15;;;;;;;14.23;13.50;;;21.00;30.70;;;;;;5072013;28;20172;-64
2022/07/04 03:54:40;;;;;;;15.57;14.97;;;20.90;30.60;;;;;;5072333;28;20195;-65
2022/07/04 03:57:06;;;;;;;15.80;14.90;;;20.90;30.70;;;;;;5071665;28;20203;-65
2022/07/04 03:59:32;;;;;;;14.47;13.97;;;20.90;30.60;;;;;;5072327;28;20183;-65
2022/07/04 04:01:57;;;;;;;15.30;14.70;;;20.90;30.60;;;;;;5071960;28;20312;-64
2022/07/04 04:07:07;;;;;;;15.50;14.50;;;20.80;30.50;;;;;;5072101;28;20178;-60
2022/07/04 04:09:32;;;;;;;15.80;15.17;;;20.90;30.60;;;;;;5071894;28;20401;-61
2022/07/04 04:11:58;;;;;;;15.40;14.70;;;20.90;30.60;;;;;;5071881;28;20175;-61
2022/07/04 04:14:24;;;;;;;15.77;14.97;;;20.90;30.60;;;;;;5072059;28;20321;-62
2022/07/04 04:16:50;;;;;;;15.70;15.10;;;20.90;30.60;;;;;;5073197;28;20538;-60
2022/07/04 04:19:16;;;;;;;15.20;14.50;;;20.90;30.70;;;;;;5072659;28;20402;-64
2022/07/04 04:21:41;;;;;;;14.90;14.30;;;20.80;30.50;;;;;;5071307;28;20405;-61
2022/07/04 04:24:07;;;;;;;16.60;15.80;;;20.80;31.00;;;;;;5072771;28;20287;-61
2022/07/04 04:26:33;;;;;;;15.60;14.90;;;20.90;30.60;;;;;;5072534;28;20207;-60
2022/07/04 04:28:59;;;;;;;15.90;15.30;;;20.90;30.50;;;;;;5072898;28;20413;-61
2022/07/04 04:31:24;;;;;;;15.23;14.73;;;20.80;30.60;;;;;;5072476;28;20179;-61
2022/07/04 04:33:50;;;;;;;15.53;15.00;;;20.80;30.50;;;;;;5072142;28;20219;-63
2022/07/04 04:36:15;;;;;;;15.43;14.90;;;20.80;30.30;;;;;;5072179;28;20274;-62
2022/07/04 04:38:41;;;;;;;15.90;14.60;;;20.90;30.20;;;;;;5072289;28;20175;-62
2022/07/04 04:41:06;;;;;;;15.27;14.30;;;20.90;30.00;;;;;;5071786;28;20202;-64
2022/07/04 04:43:32;;;;;;;14.03;13.53;;;20.90;30.20;;;;;;5072182;28;20233;-66
2022/07/04 04:45:58;;;;;;;14.60;14.00;;;20.80;30.60;;;;;;5071217;28;20286;-63
2022/07/04 04:48:23;;;;;;;15.10;14.50;;;20.90;29.70;;;;;;5070145;28;20199;-61
2022/07/04 04:50:49;;;;;;;15.30;14.60;;;20.90;29.70;;;;;;5070079;28;20163;-62
2022/07/04 04:53:14;;;;;;;14.83;14.20;;;21.00;29.40;;;;;;5070729;28;20168;-65
2022/07/04 04:55:40;;;;;;;15.27;14.70;;;21.10;29.30;;;;;;5072119;28;20163;-61
2022/07/04 04:58:06;;;;;;;14.37;13.80;;;21.10;28.90;;;;;;5075429;28;20175;-64
2022/07/04 05:00:32;;;;;;;14.17;13.67;;;21.20;28.90;;;;;;5075906;28;20167;-64
2022/07/04 05:02:57;;;;;;;15.10;14.50;;;21.10;29.10;;;;;;5076157;28;20175;-61
2022/07/04 05:05:23;;;;;;;15.20;14.60;;;21.20;28.70;;;;;;5076161;28;20249;-62
2022/07/04 05:07:49;;;;;;;15.10;14.40;;;21.30;28.60;;;;;;5075644;28;20243;-61
2022/07/04 05:10:15;;;;;;;15.27;14.67;;;21.20;28.30;;;;;;5075449;28;20175;-61
2022/07/04 05:12:41;;;;;;;16.00;15.00;;;21.30;28.70;;;;;;5075830;28;20297;-62
2022/07/04 05:15:08;;;;;;;14.67;14.17;;;21.20;28.50;;;;;;5075385;28;20461;-64
2022/07/04 05:17:33;;;;;;;14.90;14.40;;;21.20;28.60;;;;;;5079484;28;20417;-63
2022/07/04 05:19:59;;;;;;;16.00;15.10;;;21.20;28.60;;;;;;5076741;28;20409;-62
2022/07/04 05:22:24;;;;;;;16.20;15.50;;;21.30;28.50;;;;;;5075577;28;20175;-62
2022/07/04 05:24:50;;;;;;;15.90;15.00;;;21.30;28.50;;;;;;5075157;28;20248;-66
2022/07/04 05:27:15;;;;;;;15.30;14.70;;;21.30;28.70;;;;;;5075085;28;20588;-65
2022/07/04 05:29:41;;;;;;;15.00;14.40;;;21.40;28.20;;;;;;5074849;28;20210;-63
2022/07/04 05:32:06;;;;;;;14.73;14.03;;;21.70;28.90;;;;;;5075117;28;20289;-60
2022/07/04 05:34:32;;;;;;;14.23;13.63;;;22.20;26.80;;;;;;5075031;28;20227;-62
2022/07/04 05:36:58;;;;;;;15.03;14.50;;;22.20;27.10;;;;;;5076256;28;20425;-62
2022/07/04 05:39:23;;;;;;;14.43;13.60;;;22.40;26.90;;;;;;5076808;28;20229;-65
2022/07/04 05:41:49;;;;;;;15.20;14.60;;;22.80;25.80;;;;;;5075372;28;20219;-63
2022/07/04 05:44:14;;;;;;;14.80;14.17;;;23.00;25.80;;;;;;5075844;28;20544;-63
2022/07/04 05:46:40;;;;;;;13.80;13.17;;;23.60;24.70;;;;;;5074960;28;20248;-63
2022/07/04 05:49:05;;;;;;;14.63;14.03;;;24.40;22.50;;;;;;5075469;28;20676;-59
2022/07/04 05:51:31;;;;;;;14.60;14.00;;;24.90;21.90;;;;;;5077135;28;20171;-63
2022/07/04 05:53:56;;;;;;;15.07;14.47;;;25.30;21.70;;;;;;5075356;28;20277;-63
2022/07/04 05:56:23;;;;;;;15.40;14.43;;;25.60;20.00;;;;;;5075355;28;20610;-66
2022/07/04 05:58:48;;;;;;;14.90;14.30;;;26.00;19.50;;;;;;5075256;28;20649;-66
2022/07/04 06:01:14;;;;;;;13.07;12.47;;;25.70;19.90;;;;;;5074989;28;20459;-63
2022/07/04 06:03:40;;;;;;;12.87;12.47;;;25.60;20.30;;;;;;5075170;28;20282;-62
2022/07/04 06:06:06;;;;;;;14.27;13.47;;;25.40;21.00;;;;;;5074781;28;20203;-63
2022/07/04 06:08:32;;;;;;;13.43;12.97;;;25.50;20.30;;;;;;5074660;28;20978;-62
2022/07/04 06:10:58;;;;;;;13.03;12.60;;;25.10;20.80;;;;;;5074295;28;20163;-63
2022/07/04 06:13:24;;;;;;;17.03;16.20;;;25.00;21.00;;;;;;5074862;28;20412;-61
2022/07/04 06:15:50;;;;;;;15.20;14.30;;;24.80;21.70;;;;;;5074845;28;20772;-65
2022/07/04 06:18:15;;;;;;;13.40;12.90;;;24.60;21.70;;;;;;5075267;28;20199;-65
2022/07/04 06:20:41;;;;;;;14.53;13.70;;;24.30;22.30;;;;;;5074986;28;20180;-65
2022/07/04 06:23:07;;;;;;;15.17;14.57;;;24.20;22.00;;;;;;5075055;28;20256;-61
2022/07/04 06:25:33;;;;;;;13.83;13.33;;;24.20;22.30;;;;;;5074969;28;20217;-66
2022/07/04 06:27:59;;;;;;;14.93;14.00;;;24.10;22.50;;;;;;5074967;28;20457;-65
2022/07/04 06:30:25;;;;;;;14.97;14.27;;;24.50;22.20;;;;;;5074537;28;20821;-61
2022/07/04 06:32:53;;;;;;;14.40;13.80;;;24.60;22.10;;;;;;5074283;28;20715;-62
2022/07/04 06:38:09;;;;;;;14.57;13.67;;;24.70;21.50;;;;;;5074885;28;20413;-62
2022/07/04 06:40:36;;;;;;;15.23;14.47;;;24.90;21.30;;;;;;5074654;28;20459;-63
2022/07/04 06:43:01;;;;;;;15.20;14.30;;;25.60;20.50;;;;;;5074683;28;20405;-62
2022/07/04 06:45:27;;;;;;;13.67;13.17;;;26.30;19.60;;;;;;5074564;28;20460;-63
2022/07/04 06:47:53;;;;;;;13.80;13.07;;;26.10;19.60;;;;;;5074387;28;20815;-62
2022/07/04 06:50:18;;;;;;;14.07;13.43;;;25.70;19.80;;;;;;5074507;28;20179;-63
2022/07/04 06:52:44;;;;;;;13.93;13.23;;;25.90;19.80;;;;;;5075236;28;20229;-65
2022/07/04 06:55:10;;;;;;;14.37;13.43;;;26.10;19.10;;;;;;5074512;28;20215;-66
2022/07/04 06:57:36;;;;;;;14.30;13.50;;;25.80;19.40;;;;;;5077552;28;20509;-64
2022/07/04 07:00:04;;;;;;;13.13;12.20;;;25.40;20.20;;;;;;5078073;28;20204;-62
2022/07/04 07:02:29;;;;;;;13.30;12.80;;;25.30;20.90;;;;;;5076780;28;20585;-62
2022/07/04 07:04:56;;;;;;;14.30;13.43;;;25.10;20.80;;;;;;5073465;28;20556;-64
2022/07/04 07:07:24;;;;;;;14.07;13.40;;;24.80;21.30;;;;;;5074142;28;20660;-66
2022/07/04 07:09:50;;;;;;;15.13;14.13;;;24.80;21.90;;;;;;5074004;28;20412;-66
2022/07/04 07:12:16;;;;;;;13.97;13.47;;;24.80;22.20;;;;;;5073470;28;20511;-66
2022/07/04 07:14:41;;;;;;;14.93;14.10;;;24.90;22.10;;;;;;5073956;28;20429;-67
2022/07/04 07:17:07;;;;;;;14.00;13.40;;;25.20;21.10;;;;;;5073364;28;20641;-68
2022/07/04 07:19:33;;;;;;;14.10;13.30;;;25.20;20.60;;;;;;5072711;28;20179;-65
2022/07/04 07:21:59;;;;;;;13.43;12.93;;;25.40;20.50;;;;;;5073096;28;20401;-67
2022/07/04 07:24:25;;;;;;;13.20;12.60;;;25.00;21.10;;;;;;5073256;28;20516;-66
2022/07/04 08:30:13;;;;;;;19.67;18.83;;;21.80;28.80;;;;;;6313567;22;20720;-72
2022/07/04 08:32:39;;;;;;;20.73;19.70;;;21.80;28.80;;;;;;6314003;22;20376;-72
2022/07/04 08:35:09;;;;;;;20.83;19.87;;;21.80;28.70;;;;;;6314705;22;20574;-84
2022/07/04 08:37:35;;;;;;;20.23;19.37;;;21.80;28.90;;;;;;6313535;22;20379;-74
2022/07/04 08:40:06;;;;;;;20.70;19.80;;;21.80;29.00;;;;;;6312280;22;20379;-74
2022/07/04 08:42:36;;;;;;;20.37;19.37;;;21.70;28.60;;;;;;6312874;22;20240;-74
2022/07/04 08:45:02;;;;;;;20.40;19.50;;;21.80;28.80;;;;;;6312941;22;20371;-71
2022/07/04 08:47:33;;;;;;;21.40;20.30;;;21.80;28.60;;;;;;6314442;22;20503;-71
2022/07/04 08:50:22;;;;;;;20.20;19.50;;;21.80;28.70;;;;;;6305911;22;20952;-71
2022/07/04 08:53:01;;;;;;;20.07;19.30;;;21.80;28.50;;;;;;6305404;22;20415;-71
2022/07/04 08:58:31;;;;;;;20.93;19.73;;;21.80;28.80;;;;;;6308005;22;20355;-71
2022/07/04 09:00:58;;;;;;;20.90;19.80;;;21.80;28.10;;;;;;6306235;22;20372;-70
2022/07/04 09:03:25;;;;;;;20.33;19.40;;;21.80;28.30;;;;;;6306291;22;20376;-70
2022/07/04 09:05:51;;;;;;;20.20;19.30;;;21.80;28.50;;;;;;6306280;22;20373;-71
2022/07/04 09:08:17;;;;;;;21.20;20.20;;;21.80;28.70;;;;;;6306539;22;20481;-71
2022/07/04 09:10:43;;;;;;;20.30;19.50;;;21.80;28.50;;;;;;6306176;22;20465;-71
2022/07/04 09:13:10;;;;;;;20.50;19.60;;;21.80;28.00;;;;;;6306245;22;20377;-71
2022/07/04 09:15:37;;;;;;;20.20;19.40;;;21.50;29.20;;;;;;6306304;22;20381;-71
2022/07/04 09:18:03;;;;;;;20.07;19.07;;;21.60;28.90;;;;;;6306069;22;20384;-71
2022/07/04 09:20:31;;;;;;;20.53;19.73;;;21.70;28.60;;;;;;6306037;22;20449;-71
2022/07/04 09:22:57;;;;;;;19.83;19.00;;;21.70;28.30;;;;;;6306227;22;20384;-70
2022/07/04 09:25:24;;;;;;;20.20;19.40;;;21.80;28.60;;;;;;6306284;22;20407;-71
2022/07/04 09:27:52;;;;;;;20.07;19.27;;;21.80;28.50;;;;;;6305996;22;20420;-70
2022/07/04 09:30:23;;;;;;;20.90;19.97;;;21.90;28.60;;;;;;6307497;22;20360;-71
2022/07/04 09:32:59;;;;;;;21.53;20.43;;;21.90;28.70;;;;;;6306107;22;20761;-70
2022/07/04 09:35:27;;;;;;;20.20;19.30;;;22.00;28.10;;;;;;6306077;22;20692;-70
2022/07/04 09:37:59;;;;;;;20.70;19.70;;;21.80;27.70;;;;;;6305890;22;20388;-70
2022/07/04 09:43:21;;;;;;;20.70;19.80;;;22.00;27.80;;;;;;6308057;22;20360;-70
2022/07/04 09:45:54;;;;;;;21.10;20.10;;;22.10;28.40;;;;;;6305912;22;20380;-70
2022/07/04 09:48:20;;;;;;;20.53;19.63;;;22.20;27.90;;;;;;6306000;22;20485;-70
2022/07/04 09:50:46;;;;;;;20.83;19.80;;;22.30;27.40;;;;;;6305620;22;20377;-71
2022/07/04 09:53:12;;;;;;;20.90;20.00;;;22.40;27.20;;;;;;6305858;22;20373;-70
2022/07/04 09:55:38;;;;;;;20.50;19.57;;;22.40;26.50;;;;;;6305847;22;20150;-70
2022/07/04 09:58:07;;;;;;;20.53;19.67;;;22.60;27.20;;;;;;6305976;22;20158;-70
2022/07/04 10:00:37;;;;;;;19.20;18.40;;;22.90;25.40;;;;;;6305122;22;20377;-71
2022/07/04 10:03:28;;;;;;;20.73;19.63;;;23.00;25.00;;;;;;6305852;22;20372;-70
2022/07/04 10:06:15;;;;;;;19.37;18.53;;;23.10;26.20;;;;;;6306029;22;20360;-70
2022/07/04 10:08:42;;;;;;;19.90;19.10;;;23.40;24.80;;;;;;6305683;22;20384;-71
2022/07/04 10:11:09;;;;;;;19.00;17.90;;;23.80;23.60;;;;;;6306552;22;20687;-70
2022/07/04 10:13:35;;;;;;;30.43;20.37;;;23.90;22.30;;;;;;6307315;22;20384;-70
2022/07/04 10:16:00;;;;;;;18.77;18.00;;;24.10;22.80;;;;;;6305609;22;20377;-71
2022/07/04 10:18:27;;;;;;;20.00;19.10;;;24.30;21.90;;;;;;6305609;22;20381;-71
2022/07/04 10:20:55;;;;;;;17.80;17.10;;;24.40;21.50;;;;;;6305260;22;20150;-71
2022/07/04 10:23:22;;;;;;;19.33;18.23;;;24.60;21.90;;;;;;6305538;22;20937;-70
2022/07/04 10:25:48;;;;;;;19.10;18.10;;;24.60;21.90;;;;;;6305604;22;20430;-71
2022/07/04 10:28:15;;;;;;;19.20;18.40;;;24.80;21.70;;;;;;6305145;22;20460;-71
2022/07/04 10:30:41;;;;;;;20.30;19.30;;;24.80;21.40;;;;;;6305380;22;20384;-70
2022/07/04 10:33:11;;;;;;;19.93;18.90;;;24.90;21.70;;;;;;6305517;22;20385;-71
2022/07/04 10:35:58;;;;;;;19.17;18.47;;;25.00;21.90;;;;;;6305459;22;20380;-71
2022/07/04 10:38:28;;;;;;;19.47;18.77;;;25.00;21.80;;;;;;6305607;22;20751;-70
2022/07/04 10:41:15;;;;;;;18.13;17.43;;;25.20;21.30;;;;;;6305143;22;20361;-70
2022/07/04 10:44:00;;;;;;;18.60;17.77;;;25.10;20.50;;;;;;6307127;22;20364;-70
2022/07/04 10:46:27;;;;;;;19.03;18.20;;;25.20;20.60;;;;;;6305313;22;20419;-70
2022/07/04 10:48:57;;;;;;;19.20;18.40;;;25.30;21.20;;;;;;6305258;22;20439;-70
2022/07/04 10:51:35;;;;;;;19.13;18.43;;;25.20;20.70;;;;;;6305536;22;20406;-70
2022/07/04 10:54:04;;;;;;;19.77;18.97;;;25.60;20.30;;;;;;6305320;22;20437;-70
2022/07/04 10:56:30;;;;;;;19.80;18.77;;;25.50;20.20;;;;;;6305370;22;20380;-71
2022/07/04 10:58:59;;;;;;;19.93;19.03;;;25.40;20.20;;;;;;6305340;22;20444;-71
2022/07/04 11:01:25;;;;;;;19.37;18.67;;;25.30;20.70;;;;;;6305013;22;20252;-70
2022/07/04 11:03:53;;;;;;;18.73;18.00;;;25.20;20.80;;;;;;6305145;22;20380;-71
2022/07/04 11:06:43;;;;;;;18.80;18.10;;;25.00;20.70;;;;;;6305130;22;20257;-70
2022/07/04 11:09:19;;;;;;;18.70;17.80;;;25.20;20.90;;;;;;6305129;22;20715;-70
2022/07/04 11:11:58;;;;;;;18.77;17.97;;;25.10;21.10;;;;;;6304808;22;20525;-70
2022/07/04 11:14:31;;;;;;;19.20;18.50;;;25.10;20.80;;;;;;6305236;22;20380;-70
2022/07/04 11:16:57;;;;;;;18.93;17.93;;;24.90;20.90;;;;;;6305131;22;20380;-71
2022/07/04 11:19:23;;;;;;;19.57;18.67;;;24.90;21.30;;;;;;6305099;22;20384;-71
2022/07/04 11:21:49;;;;;;;18.60;17.90;;;24.90;21.30;;;;;;6304811;22;20383;-71
2022/07/04 11:24:15;;;;;;;19.43;18.43;;;24.80;21.20;;;;;;6306497;22;20154;-71
2022/07/04 11:26:40;;;;;;;19.10;18.20;;;24.80;21.30;;;;;;6304974;22;20475;-71
2022/07/04 11:29:06;;;;;;;19.30;18.40;;;24.70;21.20;;;;;;6306165;22;20161;-71
2022/07/04 11:31:37;;;;;;;18.70;18.00;;;24.50;21.80;;;;;;6304834;22;20203;-70
2022/07/04 11:34:03;;;;;;;19.10;18.10;;;24.80;21.50;;;;;;6304854;22;20150;-70
2022/07/04 11:36:28;;;;;;;19.30;18.50;;;25.00;20.80;;;;;;6305138;22;20721;-71
2022/07/04 11:39:03;;;;;;;20.00;18.83;;;24.70;21.40;;;;;;6304879;22;20157;-71
2022/07/04 11:47:09;;;;;;;18.20;17.50;;;25.10;21.10;;;;;;6306476;22;20729;-70
2022/07/04 11:49:36;;;;;;;18.80;18.00;;;25.30;20.10;;;;;;6305030;22;20368;-70
2022/07/04 11:52:02;;;;;;;19.83;18.97;;;25.10;20.70;;;;;;6304805;22;20710;-70
2022/07/04 11:54:29;;;;;;;20.47;19.37;;;25.00;21.30;;;;;;6305094;22;20467;-70
2022/07/04 11:57:28;;;;;;;18.90;18.20;;;25.10;20.80;;;;;;6304831;22;20377;-70
2022/07/04 11:59:55;;;;;;;19.23;18.53;;;25.10;20.80;;;;;;6303963;22;20387;-70
2022/07/04 12:02:22;;;;;;;19.30;18.50;;;25.10;20.80;;;;;;6305065;22;20380;-70
2022/07/04 12:04:47;;;;;;;20.80;19.80;;;25.30;20.50;;;;;;6305033;22;20380;-70
2022/07/04 12:07:18;;;;;;;18.53;17.80;;;25.50;19.80;;;;;;6304866;22;20733;-70
2022/07/04 12:09:46;;;;;;;17.90;17.30;;;25.60;19.40;;;;;;6304925;22;20162;-70
2022/07/04 12:12:14;;;;;;;18.87;18.00;;;25.80;19.30;;;;;;6304848;22;20770;-70
2022/07/04 12:14:55;;;;;;;18.67;17.77;;;26.20;18.50;;;;;;6305063;22;20616;-70
2022/07/04 12:17:21;;;;;;;17.90;17.20;;;26.00;18.70;;;;;;6305073;22;20381;-70
2022/07/04 12:19:55;;;;;;;18.80;18.10;;;25.80;19.10;;;;;;6304924;22;20709;-70
2022/07/04 12:22:31;;;;;;;18.30;17.50;;;25.70;19.20;;;;;;6305072;22;20146;-70
2022/07/04 12:24:58;;;;;;;18.60;17.70;;;25.70;18.90;;;;;;6306680;22;20891;-70
2022/07/04 12:27:25;;;;;;;20.03;18.37;;;25.80;19.00;;;;;;6306762;22;20742;-70
2022/07/04 12:29:53;;;;;;;18.97;18.03;;;25.80;19.00;;;;;;6306519;22;20403;-70
2022/07/04 12:32:19;;;;;;;17.60;17.00;;;25.80;18.80;;;;;;6306836;22;20382;-70
2022/07/04 12:34:45;;;;;;;18.40;17.50;;;25.70;19.00;;;;;;6308396;22;20380;-70
2022/07/04 12:37:13;;;;;;;18.70;18.00;;;25.60;19.50;;;;;;6306747;22;20852;-70
2022/07/04 12:39:40;;;;;;;18.30;17.50;;;25.50;19.70;;;;;;6306720;22;20415;-70
2022/07/04 12:42:19;;;;;;;17.80;17.20;;;25.40;19.70;;;;;;6306500;22;20927;-70
2022/07/04 12:44:45;;;;;;;17.20;16.50;;;25.60;19.20;;;;;;6306867;22;20714;-70
2022/07/04 12:47:12;;;;;;;17.43;16.83;;;25.40;19.80;;;;;;6306458;22;20495;-70
2022/07/04 12:49:43;;;;;;;18.50;17.60;;;25.30;19.70;;;;;;6306607;22;20377;-70
2022/07/04 12:52:12;;;;;;;18.27;17.47;;;25.20;19.90;;;;;;6306432;22;20380;-70
2022/07/04 12:54:38;;;;;;;18.33;17.63;;;25.10;19.90;;;;;;6306545;22;20373;-70
2022/07/04 12:57:09;;;;;;;18.03;17.23;;;25.10;19.60;;;;;;6306459;22;20857;-70
2022/07/04 12:59:35;;;;;;;18.50;17.60;;;25.60;18.80;;;;;;6306789;22;20767;-70
2022/07/04 13:02:01;;;;;;;17.70;16.90;;;25.60;18.60;;;;;;6306374;22;20385;-70
2022/07/04 13:04:27;;;;;;;17.67;17.07;;;25.70;18.60;;;;;;6306567;22;20866;-70
2022/07/04 13:06:53;;;;;;;18.47;17.43;;;25.60;19.40;;;;;;6306314;22;20495;-70
2022/07/04 13:09:18;;;;;;;18.47;17.67;;;25.40;19.50;;;;;;6306445;22;20154;-70
2022/07/04 13:14:28;;;;;;;17.33;16.40;;;25.30;19.70;;;;;;6308186;22;20169;-70
2022/07/04 13:16:54;;;;;;;18.00;17.30;;;25.30;19.90;;;;;;6306306;22;20380;-70
2022/07/04 13:19:19;;;;;;;17.60;16.90;;;25.50;19.50;;;;;;6306989;22;20180;-70
2022/07/04 13:21:47;;;;;;;17.07;16.37;;;25.40;19.60;;;;;;6307115;22;20491;-70
2022/07/04 13:24:13;;;;;;;17.83;17.03;;;25.30;19.80;;;;;;6306357;22;20287;-70
2022/07/04 13:26:40;;;;;;;17.73;17.10;;;25.20;20.50;;;;;;6306261;22;20562;-70
2022/07/04 13:29:06;;;;;;;18.20;17.30;;;25.20;20.40;;;;;;6306043;22;20396;-70
2022/07/04 13:31:32;;;;;;;17.97;17.17;;;25.30;20.20;;;;;;6306104;22;20387;-70
2022/07/04 13:33:57;;;;;;;18.40;17.70;;;25.30;19.90;;;;;;6306221;22;20372;-70
2022/07/04 13:36:23;;;;;;;18.60;17.80;;;25.20;19.60;;;;;;6306224;22;20590;-70
2022/07/04 13:38:49;;;;;;;17.40;16.80;;;25.20;20.20;;;;;;6306358;22;20158;-70
2022/07/04 13:41:15;;;;;;;17.10;16.40;;;25.20;19.70;;;;;;6307579;22;20154;-70
2022/07/04 13:43:41;;;;;;;17.33;16.63;;;25.50;19.30;;;;;;6306199;22;20157;-70
2022/07/04 13:46:07;;;;;;;17.70;17.00;;;25.40;19.70;;;;;;6306010;22;20598;-70
2022/07/04 13:48:33;;;;;;;18.67;17.80;;;25.40;19.40;;;;;;6306140;22;20157;-70
2022/07/04 13:50:58;;;;;;;17.97;17.37;;;25.30;19.70;;;;;;6305843;22;20169;-70
2022/07/04 13:53:24;;;;;;;18.07;17.37;;;25.20;19.80;;;;;;6307769;22;20204;-70
2022/07/04 13:55:49;;;;;;;17.90;17.30;;;25.20;20.20;;;;;;6306050;22;20158;-70
2022/07/04 13:58:15;;;;;;;18.00;17.30;;;25.60;19.10;;;;;;6305758;22;20158;-70
2022/07/04 14:00:44;;;;;;;18.80;17.80;;;25.50;19.50;;;;;;6305879;22;20154;-70